Time;durP1;ratioP1;P1;durP2;ratioP2;P2;SDS_P1;SDS_P2;PMS_P1;PMS_P2;Temp;Humidity;BMP_temperature;BMP_pressure;BME280_temperature;BME280_humidity;BME280_pressure;Samples;Min_cycle;Max_cycle;Signal;HPM_P1;HPM_P2
2021/11/04 00:01:14;;;;;;;2.40;1.00;;;8.40;99.90;;;;;;4993158;28;20027;-79
2021/11/04 00:03:40;;;;;;;0.60;0.60;;;8.50;99.90;;;;;;4982284;28;20030;-80
2021/11/04 00:06:05;;;;;;;1.65;0.70;;;8.40;99.90;;;;;;4996805;28;20069;-79
2021/11/04 00:08:31;;;;;;;0.88;0.80;;;8.40;99.90;;;;;;5000000;28;20529;-79
2021/11/04 00:10:56;;;;;;;0.70;0.70;;;8.40;99.90;;;;;;4998868;28;20026;-77
2021/11/04 00:13:23;;;;;;;2.75;0.85;;;8.40;99.90;;;;;;4996292;28;20058;-77
2021/11/04 00:15:49;;;;;;;1.25;0.70;;;8.40;99.90;;;;;;5000863;28;20019;-79
2021/11/04 00:18:15;;;;;;;1.27;0.80;;;8.40;99.90;;;;;;4998875;28;20069;-76
2021/11/04 00:20:41;;;;;;;1.20;1.00;;;8.40;99.90;;;;;;4996518;28;20111;-78
2021/11/04 00:23:07;;;;;;;1.08;0.80;;;8.40;99.90;;;;;;4999297;28;20429;-79
2021/11/04 00:25:32;;;;;;;0.60;0.57;;;8.30;99.90;;;;;;5000349;28;20019;-79
2021/11/04 00:27:58;;;;;;;1.13;0.50;;;8.30;99.90;;;;;;5000975;28;20513;-79
2021/11/04 00:30:24;;;;;;;0.77;0.70;;;8.30;99.90;;;;;;5000694;28;20027;-79
2021/11/04 00:32:53;;;;;;;0.70;0.70;;;8.30;99.90;;;;;;4999218;28;20498;-79
2021/11/04 00:35:19;;;;;;;1.48;0.90;;;8.30;99.90;;;;;;4997452;28;20030;-79
2021/11/04 00:37:45;;;;;;;1.02;0.70;;;8.30;99.90;;;;;;4998868;28;20088;-78
2021/11/04 00:40:13;;;;;;;1.10;1.00;;;8.30;99.90;;;;;;4996723;28;20471;-79
2021/11/04 00:42:39;;;;;;;0.95;0.85;;;8.30;99.90;;;;;;5000156;28;20026;-80
2021/11/04 00:45:05;;;;;;;1.55;0.85;;;8.40;99.90;;;;;;4999128;28;20073;-78
2021/11/04 00:47:31;;;;;;;1.15;0.98;;;8.40;99.90;;;;;;4999471;28;20026;-78
2021/11/04 00:49:57;;;;;;;0.60;0.60;;;8.40;99.90;;;;;;4997532;28;20450;-79
2021/11/04 00:52:22;;;;;;;0.98;0.90;;;8.40;99.90;;;;;;4998565;28;20034;-79
2021/11/04 00:54:48;;;;;;;0.85;0.75;;;8.40;99.90;;;;;;4998958;28;20513;-79
2021/11/04 00:57:14;;;;;;;0.60;0.60;;;8.40;99.90;;;;;;5004142;28;20034;-80
2021/11/04 00:59:39;;;;;;;0.50;0.50;;;8.40;99.90;;;;;;5000074;28;20394;-78
2021/11/04 01:02:05;;;;;;;0.70;0.70;;;8.50;99.90;;;;;;4999402;28;20036;-79
2021/11/04 01:04:30;;;;;;;0.65;0.60;;;8.50;99.90;;;;;;5000038;28;20278;-79
2021/11/04 01:06:56;;;;;;;0.60;0.60;;;8.50;99.90;;;;;;4999664;28;20026;-78
2021/11/04 01:09:22;;;;;;;1.33;0.55;;;8.50;99.90;;;;;;5010103;28;20027;-77
2021/11/04 01:11:48;;;;;;;2.03;0.40;;;8.50;99.90;;;;;;5003070;28;20034;-82
2021/11/04 01:14:13;;;;;;;0.52;0.50;;;8.40;99.90;;;;;;4998966;28;20081;-77
2021/11/04 01:16:39;;;;;;;0.57;0.45;;;8.40;99.90;;;;;;5006821;28;20082;-78
2021/11/04 01:19:06;;;;;;;0.52;0.52;;;8.40;99.90;;;;;;5018825;28;20073;-78
2021/11/04 01:21:31;;;;;;;0.82;0.60;;;8.40;99.90;;;;;;5015247;28;20130;-76
2021/11/04 01:23:57;;;;;;;0.73;0.57;;;8.40;99.90;;;;;;5017721;28;20149;-77
2021/11/04 01:26:22;;;;;;;3.70;0.50;;;8.30;99.90;;;;;;5002654;28;20022;-78
2021/11/04 01:28:48;;;;;;;0.45;0.45;;;8.30;99.90;;;;;;5000036;28;20026;-77
2021/11/04 01:31:14;;;;;;;0.50;0.50;;;8.30;99.90;;;;;;5001403;28;20030;-78
2021/11/04 01:33:39;;;;;;;0.82;0.68;;;8.30;99.90;;;;;;4998148;28;20030;-79
2021/11/04 01:36:05;;;;;;;0.55;0.52;;;8.20;99.90;;;;;;5001689;28;20034;-79
2021/11/04 01:38:31;;;;;;;0.68;0.50;;;8.20;99.90;;;;;;5018783;28;20050;-77
2021/11/04 01:40:56;;;;;;;0.50;0.50;;;8.20;99.90;;;;;;5017713;28;20066;-78
2021/11/04 01:43:22;;;;;;;0.52;0.52;;;8.20;99.90;;;;;;5007878;28;20061;-77
2021/11/04 01:45:49;;;;;;;2.17;0.50;;;8.30;99.90;;;;;;5012938;28;20018;-77
2021/11/04 01:48:16;;;;;;;0.82;0.50;;;8.20;99.90;;;;;;5005959;28;20027;-78
2021/11/04 01:50:42;;;;;;;0.70;0.70;;;8.20;99.90;;;;;;5015822;28;20356;-78
2021/11/04 01:53:08;;;;;;;3.22;0.65;;;8.10;99.90;;;;;;5003627;28;20030;-78
2021/11/04 01:55:34;;;;;;;0.65;0.65;;;8.10;99.90;;;;;;5002200;28;20026;-78
2021/11/04 01:58:00;;;;;;;0.80;0.80;;;8.10;99.90;;;;;;5003736;28;20030;-79
2021/11/04 02:00:29;;;;;;;1.30;1.20;;;8.00;99.90;;;;;;5013796;28;20048;-77
2021/11/04 02:03:15;;;;;;;0.93;0.90;;;7.90;99.90;;;;;;5016596;28;20033;-79
2021/11/04 02:05:53;;;;;;;1.20;1.10;;;7.80;99.90;;;;;;5002453;28;20114;-77
2021/11/04 02:08:24;;;;;;;1.48;1.20;;;7.70;99.90;;;;;;5014618;28;20086;-77
2021/11/04 02:11:03;;;;;;;1.45;1.35;;;7.60;99.90;;;;;;5017421;28;20030;-78
2021/11/04 02:13:34;;;;;;;1.50;1.40;;;7.50;99.90;;;;;;5003674;28;20469;-78
2021/11/04 02:16:02;;;;;;;1.10;1.00;;;7.40;99.90;;;;;;4996504;28;20485;-78
2021/11/04 02:18:33;;;;;;;1.55;1.27;;;7.30;99.90;;;;;;4997844;28;20038;-79
2021/11/04 02:21:08;;;;;;;1.48;1.27;;;7.20;99.90;;;;;;5003888;28;20085;-77
2021/11/04 02:23:52;;;;;;;1.27;1.17;;;7.10;99.90;;;;;;4997414;28;20034;-78
2021/11/04 02:26:21;;;;;;;1.38;1.27;;;7.10;99.90;;;;;;4996323;28;20410;-78
2021/11/04 02:28:47;;;;;;;1.67;1.58;;;7.00;99.90;;;;;;4996382;28;20087;-79
2021/11/04 02:31:14;;;;;;;1.40;1.30;;;7.10;99.90;;;;;;4995952;28;20026;-78
2021/11/04 02:33:40;;;;;;;1.60;1.50;;;7.10;99.90;;;;;;4997000;28;20029;-79
2021/11/04 02:36:07;;;;;;;1.88;1.73;;;7.00;99.90;;;;;;4996402;28;20364;-80
2021/11/04 02:38:34;;;;;;;1.80;1.70;;;7.00;99.90;;;;;;4997619;28;20034;-78
2021/11/04 02:41:01;;;;;;;1.58;1.48;;;7.00;99.90;;;;;;4996138;28;20049;-79
2021/11/04 02:43:32;;;;;;;1.67;1.58;;;7.00;99.90;;;;;;5006030;28;20036;-78
2021/11/04 02:45:59;;;;;;;1.55;1.45;;;7.00;99.90;;;;;;4998339;28;20498;-79
2021/11/04 02:48:27;;;;;;;2.65;1.58;;;7.00;99.90;;;;;;4991863;28;20049;-77
2021/11/04 02:50:53;;;;;;;1.30;1.20;;;7.00;99.90;;;;;;4994088;28;20026;-77
2021/11/04 02:53:22;;;;;;;1.20;1.10;;;6.90;99.90;;;;;;5000739;28;20490;-78
2021/11/04 02:55:49;;;;;;;1.20;1.10;;;6.90;99.90;;;;;;4998018;28;20119;-77
2021/11/04 02:58:14;;;;;;;1.33;1.15;;;6.90;99.90;;;;;;4998764;28;20031;-78
2021/11/04 03:00:44;;;;;;;1.30;1.20;;;6.80;99.90;;;;;;4991337;28;20022;-79
2021/11/04 03:03:10;;;;;;;4.45;1.17;;;6.80;99.90;;;;;;4990340;28;20037;-79
2021/11/04 03:05:35;;;;;;;1.10;1.00;;;6.80;99.90;;;;;;4986599;28;20107;-79
2021/11/04 03:08:01;;;;;;;1.67;1.58;;;6.80;99.90;;;;;;4995458;28;20034;-78
2021/11/04 03:10:27;;;;;;;1.30;1.20;;;6.80;99.90;;;;;;4994178;28;20371;-78
2021/11/04 03:12:53;;;;;;;0.93;0.93;;;6.80;99.90;;;;;;4996148;28;20023;-78
2021/11/04 03:15:20;;;;;;;1.10;1.00;;;6.90;99.90;;;;;;4993569;28;20042;-82
2021/11/04 03:17:48;;;;;;;1.17;0.95;;;6.90;99.90;;;;;;4989864;28;20149;-77
2021/11/04 03:20:17;;;;;;;1.10;1.00;;;6.90;99.90;;;;;;4998827;28;20027;-77
2021/11/04 03:22:43;;;;;;;1.33;1.20;;;6.90;99.90;;;;;;5008401;28;20026;-78
2021/11/04 03:25:10;;;;;;;0.70;0.70;;;6.90;99.90;;;;;;4997607;28;20425;-78
2021/11/04 03:27:40;;;;;;;0.52;0.52;;;6.90;99.90;;;;;;4995009;28;20067;-78
2021/11/04 03:30:09;;;;;;;0.60;0.60;;;6.80;99.90;;;;;;4995096;28;20152;-78
2021/11/04 03:32:37;;;;;;;0.68;0.68;;;6.80;99.90;;;;;;4993564;28;20482;-78
2021/11/04 03:35:05;;;;;;;2.35;0.90;;;6.80;99.90;;;;;;4995589;28;20483;-79
2021/11/04 03:37:32;;;;;;;0.80;0.80;;;6.80;99.90;;;;;;4994771;28;20061;-79
2021/11/04 03:39:58;;;;;;;0.82;0.82;;;6.70;99.90;;;;;;4996074;28;20042;-78
2021/11/04 03:42:25;;;;;;;2.15;0.77;;;6.70;99.90;;;;;;4994911;28;20105;-78
2021/11/04 03:44:52;;;;;;;0.60;0.60;;;6.70;99.90;;;;;;4995662;28;20117;-80
2021/11/04 03:47:18;;;;;;;3.42;0.60;;;6.80;99.90;;;;;;4995359;28;20132;-78
2021/11/04 03:49:50;;;;;;;0.50;0.50;;;6.80;99.90;;;;;;4995035;28;20034;-79
2021/11/04 03:52:19;;;;;;;0.50;0.50;;;6.80;99.90;;;;;;4993564;28;20034;-79
2021/11/04 03:54:44;;;;;;;2.17;0.75;;;6.70;99.90;;;;;;4995044;28;20046;-79
2021/11/04 03:57:11;;;;;;;0.52;0.52;;;6.70;99.90;;;;;;4994081;28;20086;-79
2021/11/04 03:59:36;;;;;;;0.70;0.45;;;6.70;99.90;;;;;;4994387;28;20026;-79
2021/11/04 04:02:02;;;;;;;0.75;0.75;;;6.60;99.90;;;;;;4995298;28;20032;-78
2021/11/04 04:04:28;;;;;;;0.63;0.63;;;6.70;99.90;;;;;;4994887;28;20465;-78
2021/11/04 04:06:54;;;;;;;0.75;0.63;;;6.70;99.90;;;;;;4997518;28;20581;-78
2021/11/04 04:09:22;;;;;;;0.60;0.60;;;6.70;99.90;;;;;;4998235;28;20038;-78
2021/11/04 04:11:48;;;;;;;0.40;0.40;;;6.70;99.90;;;;;;4996404;28;20049;-79
2021/11/04 04:14:14;;;;;;;0.68;0.68;;;6.70;99.90;;;;;;4994860;28;20402;-79
2021/11/04 04:16:39;;;;;;;0.63;0.63;;;6.60;99.90;;;;;;4995436;28;20030;-78
2021/11/04 04:19:05;;;;;;;1.75;0.50;;;6.60;99.90;;;;;;4996538;28;20054;-76
2021/11/04 04:21:31;;;;;;;0.60;0.60;;;6.60;99.90;;;;;;5003567;28;20030;-78
2021/11/04 04:23:56;;;;;;;1.25;0.60;;;6.70;99.90;;;;;;5001337;28;20089;-76
2021/11/04 04:26:22;;;;;;;1.33;0.63;;;6.70;99.90;;;;;;5009838;28;20045;-77
2021/11/04 04:28:47;;;;;;;0.40;0.40;;;6.70;99.90;;;;;;5031489;28;20026;-75
2021/11/04 04:31:13;;;;;;;0.60;0.60;;;6.70;99.90;;;;;;5026599;28;20041;-77
2021/11/04 04:33:39;;;;;;;3.80;0.60;;;6.70;99.90;;;;;;5007672;28;20077;-76
2021/11/04 04:36:04;;;;;;;0.60;0.60;;;6.60;99.90;;;;;;5015544;28;20014;-77
2021/11/04 04:38:30;;;;;;;1.20;0.68;;;6.70;99.90;;;;;;5015728;28;20061;-76
2021/11/04 04:40:56;;;;;;;0.93;0.80;;;6.70;99.90;;;;;;5007115;28;20402;-78
2021/11/04 04:43:22;;;;;;;0.90;0.90;;;6.70;99.90;;;;;;5000210;28;20084;-77
2021/11/04 04:45:48;;;;;;;0.50;0.47;;;6.70;99.90;;;;;;5000104;28;20044;-76
2021/11/04 04:48:14;;;;;;;1.60;0.80;;;6.70;99.90;;;;;;5000045;28;20061;-78
2021/11/04 04:50:40;;;;;;;0.60;0.60;;;6.60;99.90;;;;;;5000190;28;20121;-77
2021/11/04 04:53:07;;;;;;;0.73;0.73;;;6.70;99.90;;;;;;4999430;28;20118;-77
2021/11/04 04:55:33;;;;;;;2.08;1.00;;;6.70;99.90;;;;;;4999006;28;20134;-77
2021/11/04 04:57:59;;;;;;;0.63;0.52;;;6.70;99.90;;;;;;4999378;28;20050;-78
2021/11/04 05:00:24;;;;;;;0.55;0.55;;;6.60;99.90;;;;;;4997533;28;20018;-78
2021/11/04 05:02:50;;;;;;;0.68;0.68;;;6.60;99.90;;;;;;4995680;28;20018;-78
2021/11/04 05:05:16;;;;;;;3.05;0.80;;;6.60;99.90;;;;;;4995572;28;20109;-78
2021/11/04 05:07:42;;;;;;;2.15;0.60;;;6.70;99.90;;;;;;4995061;28;20038;-78
2021/11/04 05:10:09;;;;;;;0.75;0.73;;;6.70;99.90;;;;;;4997761;28;20103;-79
2021/11/04 05:12:35;;;;;;;0.70;0.70;;;6.70;99.90;;;;;;4998590;28;20049;-78
2021/11/04 05:15:02;;;;;;;0.57;0.57;;;6.70;99.90;;;;;;4998416;28;20034;-77
2021/11/04 05:17:27;;;;;;;1.05;0.88;;;6.60;99.90;;;;;;4998864;28;20018;-79
2021/11/04 05:19:53;;;;;;;0.60;0.60;;;6.60;99.90;;;;;;4998652;28;20098;-78
2021/11/04 05:22:19;;;;;;;0.80;0.80;;;6.60;99.90;;;;;;4999766;28;20026;-80
2021/11/04 05:24:44;;;;;;;0.80;0.80;;;6.60;99.90;;;;;;5009853;28;20038;-77
2021/11/04 05:27:10;;;;;;;0.80;0.80;;;6.60;99.90;;;;;;5015011;28;20081;-77
2021/11/04 05:29:36;;;;;;;0.70;0.70;;;6.60;99.90;;;;;;5003951;28;20045;-78
2021/11/04 05:32:09;;;;;;;0.60;0.60;;;6.50;99.90;;;;;;5000599;28;20030;-78
2021/11/04 05:34:37;;;;;;;0.82;0.63;;;6.60;99.90;;;;;;5000758;28;20029;-79
2021/11/04 05:37:04;;;;;;;2.25;0.73;;;6.60;99.90;;;;;;5000095;28;20049;-80
2021/11/04 05:39:30;;;;;;;0.93;0.70;;;6.60;99.90;;;;;;5001404;28;20479;-77
2021/11/04 05:41:55;;;;;;;1.05;0.90;;;6.60;99.90;;;;;;5010628;28;20085;-77
2021/11/04 05:44:21;;;;;;;0.70;0.70;;;6.60;99.90;;;;;;5007964;28;20030;-78
2021/11/04 05:46:47;;;;;;;0.93;0.80;;;6.60;99.90;;;;;;5011308;28;20022;-79
2021/11/04 05:49:12;;;;;;;0.80;0.80;;;6.60;99.90;;;;;;5003352;28;20042;-78
2021/11/04 05:51:38;;;;;;;1.73;0.98;;;6.60;99.90;;;;;;5011159;28;20045;-77
2021/11/04 05:54:03;;;;;;;1.88;0.80;;;6.60;99.90;;;;;;4999417;28;20034;-80
2021/11/04 05:56:29;;;;;;;1.20;0.80;;;6.60;99.90;;;;;;5000622;28;20601;-79
2021/11/04 05:58:55;;;;;;;1.10;0.95;;;6.60;99.90;;;;;;4975836;28;20022;-78
2021/11/04 06:01:21;;;;;;;1.20;1.10;;;6.60;99.90;;;;;;4999996;28;20023;-79
2021/11/04 06:03:46;;;;;;;1.85;0.77;;;6.60;99.90;;;;;;5001086;28;20041;-78
2021/11/04 06:06:12;;;;;;;1.98;1.00;;;6.60;99.90;;;;;;5001225;28;20030;-79
2021/11/04 06:08:37;;;;;;;0.95;0.90;;;6.60;99.90;;;;;;5018510;28;20506;-77
2021/11/04 06:11:03;;;;;;;1.77;0.70;;;6.70;99.90;;;;;;4999019;28;20026;-79
2021/11/04 06:13:29;;;;;;;0.65;0.65;;;6.70;99.90;;;;;;5000184;28;20364;-79
2021/11/04 06:15:54;;;;;;;1.10;0.80;;;6.70;99.90;;;;;;5000240;28;20015;-77
2021/11/04 06:18:20;;;;;;;0.73;0.73;;;6.70;99.90;;;;;;4999029;28;20030;-76
2021/11/04 06:20:46;;;;;;;1.77;0.95;;;6.70;99.90;;;;;;4994418;28;20019;-79
2021/11/04 06:23:12;;;;;;;0.70;0.70;;;6.70;99.90;;;;;;4995353;28;20030;-78
2021/11/04 06:25:37;;;;;;;1.67;0.70;;;6.70;99.90;;;;;;4998317;28;20058;-79
2021/11/04 06:28:03;;;;;;;0.73;0.73;;;6.70;99.90;;;;;;4998230;28;20030;-79
2021/11/04 06:30:29;;;;;;;0.80;0.80;;;6.70;99.90;;;;;;4998202;28;20026;-79
2021/11/04 06:32:54;;;;;;;0.95;0.80;;;6.80;99.90;;;;;;4997557;28;20026;-79
2021/11/04 06:35:20;;;;;;;1.35;1.08;;;6.70;99.90;;;;;;4997546;28;20518;-79
2021/11/04 06:37:46;;;;;;;0.65;0.63;;;6.80;99.90;;;;;;4996097;28;20033;-79
2021/11/04 06:40:13;;;;;;;0.60;0.60;;;6.80;99.90;;;;;;4998347;28;20038;-79
2021/11/04 06:42:39;;;;;;;0.80;0.80;;;6.80;99.90;;;;;;4988589;28;20140;-78
2021/11/04 06:45:05;;;;;;;1.08;0.85;;;6.80;99.90;;;;;;4993865;28;20160;-78
2021/11/04 06:47:38;;;;;;;1.45;1.10;;;6.80;99.90;;;;;;4998032;28;20038;-77
2021/11/04 06:50:05;;;;;;;1.50;1.05;;;6.80;99.90;;;;;;4992072;28;20030;-79
2021/11/04 06:52:43;;;;;;;0.70;0.70;;;6.80;99.90;;;;;;5015526;28;20029;-79
2021/11/04 06:55:11;;;;;;;1.40;0.82;;;6.80;99.90;;;;;;4999624;28;20342;-78
2021/11/04 06:57:40;;;;;;;1.60;1.20;;;6.80;99.90;;;;;;4997882;28;20093;-78
2021/11/04 07:00:08;;;;;;;1.13;0.85;;;6.90;99.90;;;;;;4997283;28;20113;-79
2021/11/04 07:02:37;;;;;;;1.13;0.95;;;6.90;99.90;;;;;;4988452;28;20034;-79
2021/11/04 07:05:04;;;;;;;1.85;1.00;;;6.90;99.90;;;;;;4997477;28;20026;-76
2021/11/04 07:07:53;;;;;;;1.42;0.95;;;6.90;99.90;;;;;;4995408;28;20072;-77
2021/11/04 07:10:19;;;;;;;1.35;1.00;;;6.90;99.90;;;;;;4997266;28;20039;-79
2021/11/04 07:12:47;;;;;;;0.90;0.90;;;6.90;99.90;;;;;;4998259;28;20058;-79
2021/11/04 07:15:16;;;;;;;1.20;1.05;;;7.00;99.90;;;;;;5026798;28;20023;-77
2021/11/04 07:17:43;;;;;;;0.77;0.73;;;7.00;99.90;;;;;;5016485;28;20090;-77
2021/11/04 07:20:13;;;;;;;1.25;0.73;;;7.00;99.90;;;;;;4998187;28;20098;-79
2021/11/04 07:22:47;;;;;;;1.20;1.10;;;7.10;99.90;;;;;;4998883;28;20126;-78
2021/11/04 07:25:14;;;;;;;1.50;0.75;;;7.10;99.90;;;;;;4999081;28;20469;-79
2021/11/04 07:28:06;;;;;;;0.70;0.70;;;7.10;99.90;;;;;;4980701;28;20033;-78
2021/11/04 07:30:31;;;;;;;0.80;0.80;;;7.00;99.90;;;;;;4997413;28;20065;-78
2021/11/04 07:33:03;;;;;;;1.00;0.90;;;7.00;99.90;;;;;;4997709;28;20030;-79
2021/11/04 07:35:35;;;;;;;0.70;0.70;;;7.10;99.90;;;;;;4997731;28;20033;-78
2021/11/04 07:38:04;;;;;;;1.85;0.82;;;7.20;99.90;;;;;;4997699;28;20037;-79
2021/11/04 07:40:30;;;;;;;1.15;0.88;;;7.10;99.90;;;;;;4997071;28;20030;-79
2021/11/04 07:42:56;;;;;;;0.88;0.88;;;7.20;99.90;;;;;;4997271;28;20313;-79
2021/11/04 07:45:23;;;;;;;1.48;0.77;;;7.20;99.90;;;;;;5008159;28;20026;-78
2021/11/04 07:47:50;;;;;;;1.38;1.00;;;7.30;99.90;;;;;;5010219;28;20034;-78
2021/11/04 07:50:21;;;;;;;0.80;0.75;;;7.20;99.90;;;;;;5011789;28;20025;-78
2021/11/04 07:52:48;;;;;;;1.77;1.27;;;7.20;99.90;;;;;;5012472;28;20029;-79
2021/11/04 07:55:14;;;;;;;2.13;0.98;;;7.20;99.90;;;;;;5014309;28;20030;-80
2021/11/04 07:57:41;;;;;;;1.60;0.80;;;7.30;99.90;;;;;;5016837;28;20018;-82
2021/11/04 08:00:09;;;;;;;1.38;0.80;;;7.20;99.90;;;;;;5030675;28;20077;-79
2021/11/04 08:02:35;;;;;;;0.60;0.60;;;7.20;99.90;;;;;;5013201;28;20033;-81
2021/11/04 08:05:01;;;;;;;5.60;0.93;;;7.20;99.90;;;;;;5012598;28;20030;-81
2021/11/04 08:07:29;;;;;;;2.97;1.25;;;7.20;99.90;;;;;;5006819;28;20029;-80
2021/11/04 08:09:56;;;;;;;1.67;1.05;;;7.20;99.90;;;;;;5004103;28;20494;-79
2021/11/04 08:12:22;;;;;;;1.88;1.35;;;7.20;99.90;;;;;;5005797;28;20049;-79
2021/11/04 08:14:47;;;;;;;1.90;1.23;;;7.20;99.90;;;;;;5001707;28;20527;-78
2021/11/04 08:17:13;;;;;;;1.10;1.00;;;7.20;99.90;;;;;;5002856;28;20066;-79
2021/11/04 08:19:39;;;;;;;2.38;1.30;;;7.10;99.90;;;;;;5002309;28;20097;-78
2021/11/04 08:22:05;;;;;;;2.85;1.48;;;7.20;99.90;;;;;;5003026;28;20046;-79
2021/11/04 08:24:30;;;;;;;1.45;1.10;;;7.10;99.90;;;;;;5000987;28;20026;-79
2021/11/04 08:26:56;;;;;;;2.35;1.20;;;7.10;99.90;;;;;;5000979;28;20035;-79
2021/11/04 08:29:22;;;;;;;1.65;1.10;;;7.10;99.90;;;;;;5004702;28;20101;-81
2021/11/04 08:31:47;;;;;;;1.35;1.13;;;7.00;99.90;;;;;;5004402;28;20481;-80
2021/11/04 08:34:13;;;;;;;1.40;1.30;;;7.00;99.90;;;;;;5001046;28;20117;-78
2021/11/04 08:36:39;;;;;;;4.05;1.95;;;7.00;99.90;;;;;;5000405;28;20047;-80
2021/11/04 08:39:05;;;;;;;1.30;1.15;;;7.00;99.90;;;;;;4982928;28;20103;-79
2021/11/04 08:41:30;;;;;;;1.10;1.10;;;7.00;99.90;;;;;;4978622;28;20528;-79
2021/11/04 08:43:56;;;;;;;1.75;1.65;;;7.00;99.90;;;;;;4984956;28;20035;-80
2021/11/04 08:46:22;;;;;;;1.70;1.52;;;7.00;99.90;;;;;;4984376;28;20042;-79
2021/11/04 08:48:47;;;;;;;1.48;1.23;;;7.00;99.90;;;;;;4986162;28;20027;-79
2021/11/04 08:51:14;;;;;;;2.72;1.90;;;7.00;99.90;;;;;;4987280;28;20095;-79
2021/11/04 08:53:40;;;;;;;1.63;1.17;;;7.20;99.90;;;;;;4985276;28;20082;-79
2021/11/04 08:56:07;;;;;;;1.95;1.80;;;7.20;99.90;;;;;;4999884;28;20019;-80
2021/11/04 08:58:32;;;;;;;2.28;2.05;;;7.10;99.90;;;;;;5005349;28;20027;-79
2021/11/04 09:00:59;;;;;;;1.65;1.55;;;7.10;99.90;;;;;;5006395;28;20112;-78
2021/11/04 09:03:25;;;;;;;2.03;1.50;;;7.20;99.90;;;;;;5005282;28;20034;-79
2021/11/04 09:05:51;;;;;;;5.13;1.73;;;7.30;99.90;;;;;;5006428;28;20034;-79
2021/11/04 09:08:16;;;;;;;2.22;1.77;;;7.20;99.90;;;;;;5009567;28;20023;-78
2021/11/04 09:10:42;;;;;;;2.70;1.73;;;7.20;99.90;;;;;;5012812;28;20035;-80
2021/11/04 09:13:10;;;;;;;3.38;1.98;;;7.30;99.90;;;;;;5009090;28;20029;-78
2021/11/04 09:15:36;;;;;;;1.60;1.50;;;7.40;99.90;;;;;;5008754;28;20081;-79
2021/11/04 09:18:03;;;;;;;2.40;1.67;;;7.40;99.90;;;;;;5009250;28;20022;-79
2021/11/04 09:20:28;;;;;;;2.13;1.77;;;7.40;99.90;;;;;;5006766;28;20053;-79
2021/11/04 09:22:54;;;;;;;6.50;1.65;;;7.50;99.90;;;;;;5006151;28;20019;-78
2021/11/04 09:25:22;;;;;;;1.63;1.33;;;7.40;99.90;;;;;;5007716;28;20027;-79
2021/11/04 09:27:48;;;;;;;1.60;1.50;;;7.60;99.90;;;;;;5008549;28;20018;-78
2021/11/04 09:30:16;;;;;;;1.75;1.63;;;7.70;99.90;;;;;;5015104;28;20014;-80
2021/11/04 09:32:44;;;;;;;2.00;1.30;;;7.80;99.90;;;;;;5011290;28;20018;-79
2021/11/04 09:35:10;;;;;;;1.85;1.42;;;7.80;99.90;;;;;;5011434;28;20046;-78
2021/11/04 09:37:35;;;;;;;1.20;1.10;;;7.80;99.90;;;;;;5010153;28;20049;-79
2021/11/04 09:40:04;;;;;;;2.15;1.23;;;7.80;99.90;;;;;;5012048;28;20019;-82
2021/11/04 09:42:29;;;;;;;1.30;1.20;;;7.80;99.90;;;;;;5008790;28;20029;-79
2021/11/04 09:44:56;;;;;;;1.38;1.27;;;7.90;99.90;;;;;;5007891;28;20031;-79
2021/11/04 09:47:29;;;;;;;4.18;1.45;;;8.00;99.90;;;;;;5009036;28;20030;-79
2021/11/04 09:49:57;;;;;;;1.90;1.08;;;8.00;99.90;;;;;;5006867;28;20037;-79
2021/11/04 09:52:28;;;;;;;1.40;1.13;;;7.90;99.90;;;;;;5002198;28;20082;-80
2021/11/04 09:54:55;;;;;;;0.98;0.80;;;7.80;99.90;;;;;;5005642;28;20033;-79
2021/11/04 09:57:22;;;;;;;0.88;0.85;;;7.90;99.90;;;;;;5011115;28;20086;-78
2021/11/04 09:59:48;;;;;;;0.90;0.80;;;7.80;99.90;;;;;;5011879;28;20045;-77
2021/11/04 10:02:16;;;;;;;1.50;0.82;;;7.80;99.90;;;;;;5016969;28;20014;-78
2021/11/04 10:04:43;;;;;;;0.85;0.60;;;7.80;99.90;;;;;;5007431;28;20054;-78
2021/11/04 10:07:10;;;;;;;0.80;0.70;;;7.80;99.90;;;;;;5002334;28;20462;-78
2021/11/04 10:09:35;;;;;;;0.70;0.70;;;7.80;99.90;;;;;;5005078;28;20113;-79
2021/11/04 10:12:06;;;;;;;0.57;0.55;;;7.80;99.90;;;;;;5004387;28;20038;-80
2021/11/04 10:14:32;;;;;;;0.55;0.50;;;7.80;99.90;;;;;;5003175;28;20030;-79
2021/11/04 10:16:58;;;;;;;0.52;0.52;;;7.90;99.90;;;;;;5001244;28;20110;-79
2021/11/04 10:19:24;;;;;;;2.53;0.63;;;7.80;99.90;;;;;;5001632;28;20503;-78
2021/11/04 10:21:52;;;;;;;1.00;0.75;;;7.80;99.90;;;;;;5003430;28;20032;-79
2021/11/04 10:24:20;;;;;;;0.50;0.50;;;7.80;99.90;;;;;;5007600;28;20029;-78
2021/11/04 10:26:46;;;;;;;0.63;0.50;;;7.80;99.90;;;;;;5003334;28;20439;-79
2021/11/04 10:29:14;;;;;;;0.60;0.60;;;7.80;99.90;;;;;;5000147;28;20065;-79
2021/11/04 10:31:45;;;;;;;0.73;0.60;;;7.80;99.90;;;;;;5003953;28;20034;-78
2021/11/04 10:34:23;;;;;;;1.25;0.60;;;7.80;99.90;;;;;;5001614;28;20433;-79
2021/11/04 10:36:49;;;;;;;0.55;0.43;;;7.80;99.90;;;;;;4999583;28;20027;-77
2021/11/04 10:39:15;;;;;;;1.02;0.70;;;7.70;99.90;;;;;;5000067;28;20395;-78
2021/11/04 10:41:43;;;;;;;1.65;0.98;;;7.60;99.90;;;;;;5003168;28;20073;-79
2021/11/04 10:44:16;;;;;;;0.77;0.77;;;7.60;99.90;;;;;;5010964;28;20389;-77
2021/11/04 10:46:48;;;;;;;1.05;0.85;;;7.70;99.90;;;;;;5005698;28;20439;-79
2021/11/04 10:49:15;;;;;;;1.92;1.00;;;7.60;99.90;;;;;;5001756;28;20230;-78
2021/11/04 10:51:41;;;;;;;1.48;0.90;;;7.70;99.90;;;;;;5002812;28;20022;-81
2021/11/04 10:54:15;;;;;;;1.00;0.70;;;7.70;99.90;;;;;;5006056;28;20042;-79
2021/11/04 10:56:43;;;;;;;1.73;0.95;;;7.80;99.90;;;;;;5009576;28;20506;-79
2021/11/04 10:59:11;;;;;;;1.25;0.93;;;7.70;99.90;;;;;;5006949;28;20018;-79
2021/11/04 11:01:43;;;;;;;1.30;1.20;;;7.80;99.90;;;;;;5005915;28;20019;-80
2021/11/04 11:04:15;;;;;;;1.08;0.98;;;7.70;99.90;;;;;;5002661;28;20069;-80
2021/11/04 11:06:43;;;;;;;1.17;0.95;;;7.60;99.90;;;;;;5003255;28;20022;-80
2021/11/04 11:09:18;;;;;;;1.48;1.02;;;7.60;99.90;;;;;;5013179;28;20034;-80
2021/11/04 11:11:49;;;;;;;0.82;0.82;;;7.60;99.90;;;;;;5017269;28;20011;-80
2021/11/04 11:14:16;;;;;;;;;;;7.70;99.90;;;;;;5018117;28;20019;-83
2021/11/04 11:16:42;;;;;;;1.40;1.30;;;7.70;99.90;;;;;;5012744;28;20364;-81
2021/11/04 11:19:10;;;;;;;1.58;1.40;;;7.80;99.90;;;;;;5004846;28;20526;-82
2021/11/04 11:21:43;;;;;;;1.70;1.52;;;7.90;99.90;;;;;;5002169;28;20074;-79
2021/11/04 11:24:12;;;;;;;1.83;1.73;;;8.00;99.90;;;;;;4999860;28;20109;-79
2021/11/04 11:26:39;;;;;;;2.15;1.95;;;8.00;99.90;;;;;;5000225;28;20026;-80
2021/11/04 11:29:05;;;;;;;4.63;1.48;;;8.10;99.90;;;;;;5000468;28;20022;-80
2021/11/04 11:31:31;;;;;;;2.03;1.83;;;8.00;99.90;;;;;;5002206;28;20096;-79
2021/11/04 11:34:05;;;;;;;1.98;1.65;;;8.00;99.90;;;;;;5004643;28;20429;-80
2021/11/04 11:36:32;;;;;;;1.50;1.40;;;7.90;99.90;;;;;;5004110;28;20080;-78
2021/11/04 11:38:59;;;;;;;1.60;1.50;;;7.90;99.90;;;;;;5003391;23;20042;-76
2021/11/04 11:41:29;;;;;;;1.70;1.60;;;7.90;99.90;;;;;;4980949;28;20026;-75
2021/11/04 11:43:56;;;;;;;2.38;2.05;;;7.90;99.90;;;;;;4978568;28;20027;-75
2021/11/04 11:46:21;;;;;;;1.85;1.73;;;8.00;99.90;;;;;;4979692;28;20042;-74
2021/11/04 11:49:12;;;;;;;2.28;1.77;;;7.90;99.90;;;;;;4980725;28;20023;-77
2021/11/04 11:51:42;;;;;;;2.33;2.13;;;7.90;99.90;;;;;;4979083;28;20027;-76
2021/11/04 11:54:08;;;;;;;2.45;2.22;;;7.80;99.90;;;;;;4978798;28;20026;-75
2021/11/04 11:56:34;;;;;;;3.17;2.45;;;7.80;99.90;;;;;;4976812;28;20037;-75
2021/11/04 11:59:22;;;;;;;2.92;2.63;;;7.90;99.90;;;;;;4978936;28;20077;-74
2021/11/04 12:01:50;;;;;;;3.55;2.83;;;7.80;99.90;;;;;;4991275;28;20027;-75
2021/11/04 12:04:42;;;;;;;3.25;2.95;;;7.80;99.90;;;;;;4998016;28;20261;-75
2021/11/04 12:07:28;;;;;;;3.90;3.45;;;7.80;99.90;;;;;;4997359;28;21670;-76
2021/11/04 12:09:53;;;;;;;4.45;4.05;;;7.80;99.90;;;;;;4997093;28;20030;-77
2021/11/04 12:12:42;;;;;;;5.15;4.65;;;7.80;99.90;;;;;;4997310;28;20483;-75
2021/11/04 12:15:09;;;;;;;5.43;4.78;;;7.80;99.90;;;;;;4997493;28;20022;-76
2021/11/04 12:17:34;;;;;;;5.45;4.95;;;7.80;99.90;;;;;;4997302;28;20023;-76
2021/11/04 12:20:01;;;;;;;4.53;4.13;;;7.80;99.90;;;;;;5000461;28;20033;-77
2021/11/04 12:22:30;;;;;;;4.72;4.32;;;7.90;99.90;;;;;;5000160;28;20019;-76
2021/11/04 12:25:01;;;;;;;5.05;4.65;;;8.00;99.90;;;;;;4999584;28;20030;-76
2021/11/04 12:27:32;;;;;;;4.80;4.40;;;7.90;99.90;;;;;;5000107;28;20112;-76
2021/11/04 12:30:14;;;;;;;4.40;4.10;;;8.00;99.90;;;;;;4999290;28;20027;-76
2021/11/04 12:32:40;;;;;;;5.05;4.55;;;8.10;99.90;;;;;;5004749;28;20024;-75
2021/11/04 12:35:06;;;;;;;4.50;4.10;;;8.20;99.90;;;;;;5001027;28;20105;-75
2021/11/04 12:37:33;;;;;;;4.90;4.40;;;8.20;99.90;;;;;;4998252;28;20030;-76
2021/11/04 12:40:04;;;;;;;4.50;4.10;;;8.30;99.90;;;;;;4998664;28;20018;-75
2021/11/04 12:42:30;;;;;;;4.47;4.07;;;8.40;99.90;;;;;;4967017;28;20404;-76
2021/11/04 12:44:55;;;;;;;4.63;4.15;;;8.40;99.90;;;;;;4959961;28;20117;-76
2021/11/04 12:47:22;;;;;;;4.15;3.85;;;8.60;99.90;;;;;;4959238;28;20099;-75
2021/11/04 12:49:49;;;;;;;5.25;4.75;;;8.70;99.90;;;;;;4959451;28;20023;-75
2021/11/04 12:52:15;;;;;;;4.50;3.40;;;8.80;99.90;;;;;;4958418;29;20023;-76
2021/11/04 12:54:48;;;;;;;4.25;3.83;;;8.80;99.90;;;;;;4960166;28;20038;-75
2021/11/04 12:57:15;;;;;;;5.50;5.00;;;8.80;99.90;;;;;;4979764;28;20030;-75
2021/11/04 12:59:50;;;;;;;3.78;3.30;;;8.80;99.90;;;;;;4985338;28;20082;-75